createdAt,value
2019-05-22T00:00:42.026Z,13.90
2019-05-22T00:03:14.910Z,13.80
2019-05-22T00:05:41.664Z,13.90
2019-05-22T00:08:09.876Z,13.80
2019-05-22T00:10:38.558Z,13.70
2019-05-22T00:13:07.242Z,13.80
2019-05-22T00:15:34.181Z,13.80
2019-05-22T00:18:02.348Z,13.60
2019-05-22T00:20:31.116Z,13.50
2019-05-22T00:23:03.288Z,13.60
2019-05-22T00:25:33.232Z,13.70
2019-05-22T00:28:01.642Z,13.70
2019-05-22T00:30:31.902Z,13.50
2019-05-22T00:32:59.841Z,13.50
2019-05-22T00:35:28.710Z,13.30
2019-05-22T00:37:56.551Z,13.60
2019-05-22T00:40:28.463Z,13.40
2019-05-22T00:43:05.004Z,13.30
2019-05-22T00:45:27.081Z,13.30
2019-05-22T00:47:54.149Z,13.30
2019-05-22T00:50:32.480Z,13.30
2019-05-22T00:53:01.216Z,13.30
2019-05-22T00:55:39.199Z,13.20
2019-05-22T00:58:13.182Z,13.00
2019-05-22T01:00:42.828Z,13.00
2019-05-22T01:03:12.665Z,13.00
2019-05-22T01:05:41.898Z,13.00
2019-05-22T01:08:11.477Z,13.10
2019-05-22T01:10:40.501Z,13.00
2019-05-22T01:13:07.170Z,13.00
2019-05-22T01:15:35.106Z,12.90
2019-05-22T01:18:06.996Z,12.70
2019-05-22T01:20:34.040Z,12.70
2019-05-22T01:23:02.233Z,12.70
2019-05-22T01:25:31.459Z,12.70
2019-05-22T01:28:00.643Z,12.70
2019-05-22T01:30:29.477Z,12.70
2019-05-22T01:32:59.662Z,12.60
2019-05-22T01:35:29.697Z,12.70
2019-05-22T01:37:57.571Z,12.60
2019-05-22T01:40:35.865Z,12.60
2019-05-22T01:43:06.242Z,12.60
2019-05-22T01:45:32.916Z,12.50
2019-05-22T01:48:05.814Z,12.40
2019-05-22T01:50:47.945Z,12.40
2019-05-22T01:53:18.477Z,12.40
2019-05-22T01:55:47.481Z,12.60
2019-05-22T01:58:15.626Z,12.60
2019-05-22T02:00:43.599Z,12.70
2019-05-22T02:03:11.233Z,12.80
2019-05-22T02:05:38.401Z,12.60
2019-05-22T02:08:05.450Z,12.60
2019-05-22T02:10:36.535Z,12.60
2019-05-22T02:13:06.187Z,12.30
2019-05-22T02:15:35.113Z,12.20
2019-05-22T02:18:10.322Z,12.30
2019-05-22T02:20:38.658Z,12.40
2019-05-22T02:23:06.557Z,12.40
2019-05-22T02:25:33.815Z,12.40
2019-05-22T02:28:00.482Z,12.40
2019-05-22T02:30:29.330Z,12.40
2019-05-22T02:32:56.906Z,12.40
2019-05-22T02:35:24.130Z,12.30
2019-05-22T02:37:52.510Z,12.40
2019-05-22T02:40:26.726Z,12.40
2019-05-22T02:42:54.483Z,12.50
2019-05-22T02:45:21.722Z,12.60
2019-05-22T02:47:49.702Z,12.40
2019-05-22T02:50:17.745Z,12.40
2019-05-22T02:52:46.000Z,12.30
2019-05-22T02:55:13.439Z,12.20
2019-05-22T02:57:41.110Z,12.30
2019-05-22T03:00:08.764Z,12.30
2019-05-22T03:02:40.142Z,12.40
2019-05-22T03:05:09.318Z,12.30
2019-05-22T03:07:38.970Z,12.20
2019-05-22T03:10:08.750Z,12.10
2019-05-22T03:12:38.490Z,12.10
2019-05-22T03:15:07.766Z,12.00
2019-05-22T03:17:36.086Z,11.90
2019-05-22T03:20:07.341Z,11.80
2019-05-22T03:23:00.514Z,11.80
2019-05-22T03:25:30.004Z,11.80
2019-05-22T03:27:59.443Z,11.80
2019-05-22T03:30:30.726Z,11.90
2019-05-22T03:33:01.108Z,11.90
2019-05-22T03:35:32.775Z,11.90
2019-05-22T03:38:00.866Z,12.00
2019-05-22T03:40:29.354Z,11.80
2019-05-22T03:42:56.883Z,11.70
2019-05-22T03:45:23.454Z,11.70
2019-05-22T03:47:49.994Z,11.80
2019-05-22T03:50:17.333Z,11.80
2019-05-22T03:52:44.015Z,11.80
2019-05-22T03:55:12.446Z,11.80
2019-05-22T03:57:39.110Z,11.80
2019-05-22T04:00:08.047Z,11.80
2019-05-22T04:02:36.141Z,11.80
2019-05-22T04:05:06.595Z,11.80
2019-05-22T04:07:33.280Z,11.70
2019-05-22T04:10:04.028Z,11.70
2019-05-22T04:12:30.884Z,11.70
2019-05-22T04:14:57.718Z,11.80
2019-05-22T04:17:26.753Z,11.70
2019-05-22T04:19:55.106Z,11.60
2019-05-22T04:22:21.965Z,11.70
2019-05-22T04:24:48.689Z,11.70
2019-05-22T04:27:16.270Z,11.80
2019-05-22T04:29:43.195Z,11.70
2019-05-22T04:32:16.678Z,11.70
2019-05-22T04:34:43.819Z,11.70
2019-05-22T04:37:12.870Z,11.70
2019-05-22T04:39:44.916Z,11.90
2019-05-22T04:42:13.129Z,11.70
2019-05-22T04:45:07.754Z,11.70
2019-05-22T04:47:34.945Z,11.90
2019-05-22T04:50:07.935Z,11.80
2019-05-22T04:52:33.849Z,11.80
2019-05-22T04:55:01.029Z,11.80
2019-05-22T04:57:27.887Z,11.70
2019-05-22T04:59:56.114Z,11.80
2019-05-22T05:02:23.197Z,11.80
2019-05-22T05:04:50.027Z,11.90
2019-05-22T05:07:17.419Z,11.80
2019-05-22T05:09:44.150Z,11.70
2019-05-22T05:12:10.926Z,11.70
2019-05-22T05:14:39.081Z,11.70
2019-05-22T05:17:07.261Z,11.60
2019-05-22T05:19:33.986Z,11.60
2019-05-22T05:22:00.638Z,11.70
2019-05-22T05:24:27.327Z,11.60
2019-05-22T05:26:56.201Z,11.70
2019-05-22T05:29:25.674Z,11.70
2019-05-22T05:31:52.905Z,11.70
2019-05-22T05:34:32.862Z,11.60
2019-05-22T05:37:00.742Z,11.70
2019-05-22T05:39:39.518Z,11.60
2019-05-22T05:42:06.189Z,11.80
2019-05-22T05:44:33.429Z,11.70
2019-05-22T05:47:00.360Z,11.70
2019-05-22T05:49:27.821Z,11.60
2019-05-22T05:51:55.240Z,11.50
2019-05-22T05:54:22.757Z,11.60
2019-05-22T05:56:51.307Z,11.60
2019-05-22T05:59:19.855Z,11.60
2019-05-22T06:01:48.281Z,11.80
2019-05-22T06:04:33.610Z,11.80
2019-05-22T06:09:26.754Z,11.80
2019-05-22T06:11:55.295Z,11.90
2019-05-22T06:14:21.221Z,11.80
2019-05-22T06:14:29.363Z,11.70
2019-05-22T06:17:13.500Z,11.70
2019-05-22T06:19:49.291Z,11.70
2019-05-22T06:22:18.548Z,11.70
2019-05-22T06:25:02.569Z,11.80
2019-05-22T06:27:47.944Z,11.90
2019-05-22T06:30:16.802Z,12.00
2019-05-22T06:33:06.629Z,12.10
2019-05-22T06:35:35.597Z,12.10
2019-05-22T06:38:21.178Z,12.00
2019-05-22T06:40:48.443Z,11.90
2019-05-22T06:43:23.272Z,11.80
2019-05-22T06:45:50.126Z,11.80
2019-05-22T06:48:16.571Z,11.80
2019-05-22T06:50:43.435Z,11.80
2019-05-22T06:53:10.670Z,11.90
2019-05-22T06:55:37.238Z,12.00
2019-05-22T06:58:04.382Z,11.90
2019-05-22T07:00:31.425Z,11.80
2019-05-22T07:02:58.173Z,11.90
2019-05-22T07:05:25.334Z,11.90
2019-05-22T07:07:52.098Z,11.80
2019-05-22T07:10:20.181Z,11.70
2019-05-22T07:12:50.230Z,11.60
2019-05-22T07:15:20.421Z,11.60
2019-05-22T07:17:48.646Z,11.70
2019-05-22T07:20:16.011Z,11.60
2019-05-22T07:22:42.830Z,11.60
2019-05-22T07:25:10.344Z,11.60
2019-05-22T07:27:37.778Z,11.60
2019-05-22T07:30:07.374Z,11.50
2019-05-22T07:32:35.990Z,11.40
2019-05-22T07:35:04.832Z,11.60
2019-05-22T07:37:33.799Z,11.50
2019-05-22T07:40:00.937Z,11.50
2019-05-22T07:42:27.935Z,11.50
2019-05-22T07:44:54.467Z,11.50
2019-05-22T07:47:23.189Z,11.60
2019-05-22T07:49:49.878Z,11.70
2019-05-22T07:52:17.047Z,11.80
2019-05-22T07:54:43.921Z,11.70
2019-05-22T07:57:15.393Z,11.70
2019-05-22T07:59:43.137Z,11.80
2019-05-22T08:02:10.622Z,11.70
2019-05-22T08:04:40.061Z,11.70
2019-05-22T08:07:08.354Z,11.70
2019-05-22T08:09:35.696Z,11.60
2019-05-22T08:12:02.862Z,11.70
2019-05-22T08:14:31.600Z,11.70
2019-05-22T08:16:59.806Z,11.80
2019-05-22T08:19:26.739Z,11.80
2019-05-22T08:22:06.237Z,11.90
2019-05-22T08:24:21.746Z,12.00
2019-05-22T08:26:54.477Z,11.90
2019-05-22T08:29:19.251Z,11.90
2019-05-22T08:31:47.022Z,11.80
2019-05-22T08:34:13.607Z,11.80
2019-05-22T08:36:40.565Z,11.90
2019-05-22T08:39:09.460Z,12.00
2019-05-22T08:41:39.507Z,12.10
2019-05-22T08:44:15.996Z,12.00
2019-05-22T08:46:35.311Z,11.90
2019-05-22T08:49:02.621Z,11.90
2019-05-22T08:51:29.174Z,12.00
2019-05-22T08:53:57.530Z,12.10
2019-05-22T08:56:25.067Z,12.00
2019-05-22T08:58:51.654Z,12.10
2019-05-22T09:01:19.208Z,12.20
2019-05-22T09:03:46.379Z,12.20
2019-05-22T09:06:12.960Z,12.20
2019-05-22T09:08:39.710Z,12.10
2019-05-22T09:11:06.352Z,12.00
2019-05-22T09:13:33.017Z,12.00
2019-05-22T09:16:01.856Z,12.00
2019-05-22T09:18:30.332Z,12.20
2019-05-22T09:20:57.575Z,12.10
2019-05-22T09:23:24.333Z,12.10
2019-05-22T09:25:52.078Z,12.00
2019-05-22T09:28:19.367Z,12.10
2019-05-22T09:30:46.098Z,12.10
2019-05-22T09:33:12.894Z,12.10
2019-05-22T09:35:40.260Z,12.00
2019-05-22T09:38:07.034Z,12.10
2019-05-22T09:40:34.331Z,12.00
2019-05-22T09:43:02.037Z,12.10
2019-05-22T09:45:29.135Z,12.10
2019-05-22T09:47:56.211Z,12.00
2019-05-22T09:50:22.942Z,12.00
2019-05-22T09:52:57.420Z,12.00
2019-05-22T09:55:18.866Z,12.10
2019-05-22T09:57:45.791Z,12.10
2019-05-22T10:00:13.761Z,12.00
2019-05-22T10:02:41.446Z,12.10
2019-05-22T10:05:09.341Z,12.10
2019-05-22T10:07:36.323Z,12.10
2019-05-22T10:10:06.097Z,12.00
2019-05-22T10:12:33.228Z,11.90
2019-05-22T10:15:00.193Z,11.90
2019-05-22T10:17:27.429Z,11.90
2019-05-22T10:19:54.599Z,12.00
2019-05-22T10:22:23.552Z,12.00
2019-05-22T10:24:51.828Z,12.00
2019-05-22T10:27:19.135Z,12.00
2019-05-22T10:29:45.767Z,11.90
2019-05-22T10:32:12.495Z,11.90
2019-05-22T10:34:39.255Z,11.80
2019-05-22T10:37:06.402Z,11.90
2019-05-22T10:39:33.677Z,12.00
2019-05-22T10:42:00.911Z,11.90
2019-05-22T10:44:27.466Z,11.90
2019-05-22T10:46:54.206Z,11.90
2019-05-22T10:49:21.130Z,11.90
2019-05-22T10:51:48.306Z,11.70
2019-05-22T10:54:15.393Z,11.70
2019-05-22T10:56:42.216Z,11.90
2019-05-22T10:59:08.979Z,12.10
2019-05-22T11:01:37.716Z,12.10
2019-05-22T11:04:04.953Z,11.90
2019-05-22T11:06:31.708Z,11.90
2019-05-22T11:08:59.080Z,11.90
2019-05-22T11:11:25.956Z,11.90
2019-05-22T11:14:01.514Z,11.90
2019-05-22T11:16:21.667Z,12.00
2019-05-22T11:18:49.543Z,12.10
2019-05-22T11:21:16.709Z,12.10
2019-05-22T11:23:51.946Z,12.10
2019-05-22T11:26:12.956Z,12.10
2019-05-22T11:28:40.660Z,12.10
2019-05-22T11:31:07.639Z,12.10
2019-05-22T11:33:34.617Z,12.10
2019-05-22T11:36:01.330Z,11.90
2019-05-22T11:38:28.577Z,11.90
2019-05-22T11:40:55.341Z,11.90
2019-05-22T11:43:23.368Z,11.90
2019-05-22T11:45:50.024Z,12.30
2019-05-22T11:48:16.649Z,12.40
2019-05-22T11:50:44.178Z,12.30
2019-05-22T11:53:12.310Z,12.10
2019-05-22T11:55:45.035Z,12.10
2019-05-22T11:58:09.199Z,12.10
2019-05-22T12:00:36.280Z,12.10
2019-05-22T12:03:03.873Z,12.10
2019-05-22T12:05:30.352Z,12.30
2019-05-22T12:07:57.624Z,12.30
2019-05-22T12:10:24.799Z,12.10
2019-05-22T12:12:52.300Z,12.30
2019-05-22T12:15:22.471Z,12.20
2019-05-22T12:17:49.799Z,12.30
2019-05-22T12:20:17.088Z,12.20
2019-05-22T12:22:44.168Z,12.20
2019-05-22T12:25:11.592Z,12.50
2019-05-22T12:27:38.651Z,12.40
2019-05-22T12:30:07.987Z,12.30
2019-05-22T12:32:35.284Z,12.40
2019-05-22T12:35:02.611Z,12.40
2019-05-22T12:37:29.409Z,12.50
2019-05-22T12:39:57.226Z,12.60
2019-05-22T12:42:24.900Z,12.60
2019-05-22T12:44:51.729Z,12.60
2019-05-22T12:47:19.513Z,12.60
2019-05-22T12:49:46.374Z,12.70
2019-05-22T12:52:13.710Z,12.60
2019-05-22T12:54:46.891Z,12.60
2019-05-22T12:57:09.802Z,12.70
2019-05-22T12:59:36.633Z,12.80
2019-05-22T13:02:04.910Z,12.80
2019-05-22T13:04:32.642Z,12.70
2019-05-22T13:06:59.708Z,12.80
2019-05-22T13:09:26.885Z,12.70
2019-05-22T13:11:53.455Z,12.80
2019-05-22T13:14:19.978Z,12.80
2019-05-22T13:16:49.085Z,12.60
2019-05-22T13:19:15.914Z,12.80
2019-05-22T13:21:44.786Z,12.90
2019-05-22T13:24:18.243Z,13.00
2019-05-22T13:26:46.112Z,13.00
2019-05-22T13:29:14.775Z,13.20
2019-05-22T13:31:42.636Z,13.10
2019-05-22T13:34:12.360Z,13.10
2019-05-22T13:36:39.227Z,12.90
2019-05-22T13:39:08.780Z,13.00
2019-05-22T13:41:35.349Z,13.10
2019-05-22T13:44:03.335Z,13.00
2019-05-22T13:46:30.253Z,13.10
2019-05-22T13:48:56.993Z,13.20
2019-05-22T13:51:24.035Z,13.30
2019-05-22T13:53:51.397Z,13.50
2019-05-22T13:56:18.659Z,13.50
2019-05-22T13:58:46.229Z,13.90
2019-05-22T14:01:13.230Z,14.40
2019-05-22T14:03:39.896Z,14.30
2019-05-22T14:06:07.642Z,14.20
2019-05-22T14:08:34.521Z,14.10
2019-05-22T14:11:01.776Z,14.00
2019-05-22T14:13:29.434Z,14.10
2019-05-22T14:15:57.200Z,14.20
2019-05-22T14:18:24.497Z,14.10
2019-05-22T14:20:51.128Z,14.10
2019-05-22T14:23:18.018Z,14.10
2019-05-22T14:25:46.445Z,14.10
2019-05-22T14:28:15.012Z,14.20
2019-05-22T14:30:43.048Z,14.30
2019-05-22T14:33:10.321Z,14.30
2019-05-22T14:35:48.079Z,14.10
2019-05-22T14:38:08.737Z,14.00
2019-05-22T14:40:37.185Z,13.80
2019-05-22T14:43:06.562Z,14.00
2019-05-22T14:45:34.686Z,13.80
2019-05-22T14:48:03.258Z,13.60
2019-05-22T14:50:32.983Z,13.60
2019-05-22T14:53:02.376Z,13.80
2019-05-22T14:55:31.794Z,14.00
2019-05-22T14:57:58.966Z,14.00
2019-05-22T15:00:27.425Z,14.10
2019-05-22T15:02:57.945Z,14.10
2019-05-22T15:05:23.017Z,13.90
2019-05-22T15:07:50.311Z,14.10
2019-05-22T15:10:20.446Z,14.30
2019-05-22T15:12:49.220Z,14.00
2019-05-22T15:15:17.368Z,14.10
2019-05-22T15:17:44.309Z,14.10
2019-05-22T15:20:14.767Z,14.20
2019-05-22T15:22:41.604Z,14.50
2019-05-22T15:25:09.402Z,14.40
2019-05-22T15:27:37.734Z,14.30
2019-05-22T15:30:05.899Z,14.10
2019-05-22T15:32:32.934Z,14.00
2019-05-22T15:35:01.723Z,14.20
2019-05-22T15:37:29.186Z,14.30
2019-05-22T15:39:57.541Z,14.50
2019-05-22T15:42:38.253Z,14.40
2019-05-22T15:45:07.925Z,14.30
2019-05-22T15:47:52.615Z,14.10
2019-05-22T15:50:07.430Z,14.00
2019-05-22T15:52:36.278Z,13.90
2019-05-22T15:55:05.956Z,13.90
2019-05-22T15:57:33.382Z,14.00
2019-05-22T16:00:05.158Z,14.50
2019-05-22T16:02:32.592Z,14.90
2019-05-22T16:04:59.671Z,15.10
2019-05-22T16:07:26.337Z,15.40
2019-05-22T16:09:53.413Z,15.00
2019-05-22T16:12:21.168Z,14.90
2019-05-22T16:14:48.438Z,14.60
2019-05-22T16:17:15.068Z,14.50
2019-05-22T16:19:43.133Z,14.50
2019-05-22T16:22:10.390Z,14.20
2019-05-22T16:24:38.657Z,14.80
2019-05-22T16:27:06.100Z,14.70
2019-05-22T16:29:33.049Z,14.50
2019-05-22T16:32:02.609Z,14.40
2019-05-22T16:34:30.861Z,14.30
2019-05-22T16:36:57.837Z,14.60
2019-05-22T16:39:27.452Z,14.90
2019-05-22T16:41:54.854Z,15.40
2019-05-22T16:44:21.654Z,15.20
2019-05-22T16:46:49.318Z,15.10
2019-05-22T16:49:16.269Z,15.30
2019-05-22T16:51:43.142Z,15.20
2019-05-22T16:54:10.873Z,15.00
2019-05-22T16:56:40.032Z,15.10
2019-05-22T16:59:08.475Z,15.00
2019-05-22T17:01:56.850Z,14.80
2019-05-22T17:04:07.124Z,15.10
2019-05-22T17:06:35.181Z,15.60
2019-05-22T17:09:04.745Z,16.00
2019-05-22T17:11:32.654Z,16.20
2019-05-22T17:14:03.993Z,17.10
2019-05-22T17:16:32.949Z,17.90
2019-05-22T17:18:59.609Z,18.30
2019-05-22T17:21:27.723Z,18.20
2019-05-22T17:23:56.562Z,17.80
2019-05-22T17:26:23.733Z,18.10
2019-05-22T17:28:50.852Z,18.10
2019-05-22T17:31:17.700Z,18.00
2019-05-22T17:33:44.358Z,18.80
2019-05-22T17:36:11.827Z,18.70
2019-05-22T17:38:39.743Z,19.00
2019-05-22T17:41:06.606Z,18.60
2019-05-22T17:43:33.239Z,18.70
2019-05-22T17:46:00.211Z,19.00
2019-05-22T17:48:27.251Z,19.00
2019-05-22T17:50:54.629Z,18.80
2019-05-22T17:53:23.654Z,18.70
2019-05-22T17:55:51.613Z,18.50
2019-05-22T17:58:19.856Z,18.90
2019-05-22T18:00:51.956Z,18.80
2019-05-22T18:03:20.096Z,18.80
2019-05-22T18:05:47.254Z,18.80
2019-05-22T18:08:16.003Z,18.90
2019-05-22T18:10:47.736Z,18.40
2019-05-22T18:13:15.811Z,18.30
2019-05-22T18:15:45.252Z,18.50
2019-05-22T18:18:12.630Z,18.30
2019-05-22T18:20:43.507Z,18.00
2019-05-22T18:23:09.225Z,18.20
2019-05-22T18:25:37.931Z,18.10
2019-05-22T18:28:05.421Z,17.30
2019-05-22T18:30:34.158Z,17.20
2019-05-22T18:33:04.534Z,17.10
2019-05-22T18:35:31.466Z,17.00
2019-05-22T18:37:58.341Z,17.00
2019-05-22T18:40:25.680Z,17.10
2019-05-22T18:42:53.479Z,17.10
2019-05-22T18:45:21.692Z,17.50
2019-05-22T18:47:48.419Z,17.40
2019-05-22T18:50:16.444Z,17.20
2019-05-22T18:52:47.307Z,16.70
2019-05-22T18:55:14.540Z,16.50
2019-05-22T18:57:41.826Z,16.40
2019-05-22T19:00:09.457Z,16.00
2019-05-22T19:02:36.441Z,15.60
2019-05-22T19:05:06.222Z,15.00
2019-05-22T19:07:33.473Z,15.00
2019-05-22T19:10:00.145Z,14.90
2019-05-22T19:12:27.609Z,14.80
2019-05-22T19:14:54.442Z,14.70
2019-05-22T19:17:22.175Z,14.40
2019-05-22T19:19:49.018Z,14.50
2019-05-22T19:22:18.055Z,14.50
2019-05-22T19:24:44.989Z,14.30
2019-05-22T19:27:11.758Z,14.30
2019-05-22T19:29:38.878Z,14.20
2019-05-22T19:32:05.561Z,14.10
2019-05-22T19:34:32.137Z,14.00
2019-05-22T19:37:00.373Z,13.90
2019-05-22T19:39:27.910Z,13.90
2019-05-22T19:42:03.532Z,13.90
2019-05-22T19:44:24.732Z,13.90
2019-05-22T19:46:51.897Z,13.80
2019-05-22T19:49:19.090Z,13.70
2019-05-22T19:51:48.552Z,13.60
2019-05-22T19:54:17.001Z,13.50
2019-05-22T19:56:46.135Z,13.50
2019-05-22T19:59:14.596Z,13.40
2019-05-22T20:01:41.337Z,13.30
2019-05-22T20:04:08.521Z,13.10
2019-05-22T20:06:38.260Z,12.80
2019-05-22T20:09:07.068Z,12.90
2019-05-22T20:11:34.798Z,12.90
2019-05-22T20:14:02.534Z,12.90
2019-05-22T20:16:29.316Z,12.80
2019-05-22T20:18:56.763Z,12.80
2019-05-22T20:21:24.292Z,12.70
2019-05-22T20:23:51.011Z,12.80
2019-05-22T20:26:18.585Z,12.80
2019-05-22T20:28:45.542Z,12.80
2019-05-22T20:31:12.536Z,12.70
2019-05-22T20:33:40.561Z,12.50
2019-05-22T20:36:08.176Z,12.40
2019-05-22T20:38:35.205Z,12.30
2019-05-22T20:41:02.447Z,12.50
2019-05-22T20:43:30.138Z,12.40
2019-05-22T20:45:57.770Z,12.30
2019-05-22T20:48:27.542Z,12.10
2019-05-22T20:50:55.862Z,12.10
2019-05-22T20:53:23.614Z,12.20
2019-05-22T20:55:51.909Z,12.00
2019-05-22T20:58:20.328Z,12.10
2019-05-22T21:00:48.617Z,12.10
2019-05-22T21:03:18.254Z,11.90
2019-05-22T21:05:45.314Z,12.00
2019-05-22T21:08:12.911Z,11.90
2019-05-22T21:10:43.276Z,11.60
2019-05-22T21:13:12.518Z,11.60
2019-05-22T21:15:39.102Z,11.60
2019-05-22T21:18:06.864Z,11.40
2019-05-22T21:20:33.721Z,11.60
2019-05-22T21:23:01.378Z,11.60
2019-05-22T21:25:28.295Z,11.70
2019-05-22T21:27:55.276Z,11.60
2019-05-22T21:30:23.453Z,11.60
2019-05-22T21:32:49.982Z,11.60
2019-05-22T21:35:18.954Z,11.70
2019-05-22T21:37:45.776Z,11.50
2019-05-22T21:40:13.769Z,11.40
2019-05-22T21:42:41.382Z,11.30
2019-05-22T21:45:09.643Z,11.40
2019-05-22T21:47:36.878Z,11.20
2019-05-22T21:50:05.959Z,11.30
2019-05-22T21:52:34.898Z,11.20
2019-05-22T21:55:03.378Z,11.30
2019-05-22T21:57:29.814Z,11.30
2019-05-22T21:59:56.586Z,11.30
2019-05-22T22:02:31.819Z,11.20
2019-05-22T22:04:59.591Z,11.30
2019-05-22T22:07:29.233Z,11.20
2019-05-22T22:09:55.915Z,11.30
2019-05-22T22:12:24.042Z,11.30
2019-05-22T22:14:50.830Z,11.20
2019-05-22T22:17:19.403Z,11.10
2019-05-22T22:19:46.348Z,11.00
2019-05-22T22:22:17.230Z,10.90
2019-05-22T22:24:44.458Z,10.90
2019-05-22T22:27:11.831Z,11.00
2019-05-22T22:29:39.548Z,10.90
2019-05-22T22:32:10.592Z,10.90
2019-05-22T22:34:41.965Z,11.10
2019-05-22T22:37:11.036Z,10.90
2019-05-22T22:39:40.685Z,11.10
2019-05-22T22:42:10.242Z,10.80
2019-05-22T22:44:37.338Z,10.70
2019-05-22T22:47:13.129Z,10.50
2019-05-22T22:49:41.578Z,10.70
2019-05-22T22:52:11.569Z,10.50
2019-05-22T22:54:38.907Z,10.30
2019-05-22T22:57:08.679Z,10.40
2019-05-22T22:59:35.319Z,10.40
2019-05-22T23:02:03.895Z,10.30
2019-05-22T23:04:32.242Z,10.20
2019-05-22T23:07:01.736Z,10.20
2019-05-22T23:09:30.073Z,10.20
2019-05-22T23:11:57.146Z,10.20
2019-05-22T23:14:26.391Z,10.30
2019-05-22T23:16:54.953Z,10.30
2019-05-22T23:19:31.604Z,10.40
2019-05-22T23:21:59.262Z,10.30
2019-05-22T23:24:26.103Z,10.30
2019-05-22T23:26:53.377Z,10.20
2019-05-22T23:29:20.617Z,10.20
2019-05-22T23:31:47.997Z,10.40
2019-05-22T23:34:14.930Z,10.10
2019-05-22T23:36:42.707Z,10.20
2019-05-22T23:39:12.253Z,10.30
2019-05-22T23:41:40.609Z,10.40
2019-05-22T23:44:11.070Z,10.20
2019-05-22T23:46:39.307Z,10.20
2019-05-22T23:49:06.064Z,10.20
2019-05-22T23:51:32.611Z,10.20
2019-05-22T23:54:00.086Z,10.10
2019-05-22T23:56:28.625Z,10.10
2019-05-22T23:58:56.299Z,10.10
